Time;durP1;ratioP1;P1;durP2;ratioP2;P2;SDS_P1;SDS_P2;PMS_P1;PMS_P2;Temp;Humidity;BMP_temperature;BMP_pressure;BME280_temperature;BME280_humidity;BME280_pressure;Samples;Min_cycle;Max_cycle;Signal;HPM_P1;HPM_P2
2022/07/07 00:01:30;;;;;;;3.80;2.30;;;16.50;1.00;;;;;;6198732;28;20385;-53
2022/07/07 00:04:33;;;;;;;1.90;1.80;;;16.50;1.00;;;;;;6209138;28;20739;-55
2022/07/07 00:07:39;;;;;;;2.13;1.97;;;16.50;1.00;;;;;;6206538;28;20315;-55
2022/07/07 00:10:42;;;;;;;2.93;2.17;;;16.50;1.00;;;;;;6195815;28;20239;-54
2022/07/07 00:13:46;;;;;;;1.73;1.73;;;16.50;1.00;;;;;;6193196;28;20243;-54
2022/07/07 00:16:56;;;;;;;2.20;2.03;;;16.50;1.00;;;;;;6186532;28;20236;-54
2022/07/07 00:19:59;;;;;;;4.70;1.70;;;16.50;1.00;;;;;;6186175;28;20275;-56
2022/07/07 00:23:02;;;;;;;2.73;1.90;;;16.50;1.00;;;;;;6183592;28;20240;-54
2022/07/07 00:26:06;;;;;;;1.80;1.80;;;16.50;1.00;;;;;;6187518;28;20242;-56
2022/07/07 00:29:10;;;;;;;3.43;1.90;;;16.50;1.00;;;;;;6186424;28;20240;-54
2022/07/07 00:32:13;;;;;;;2.30;2.10;;;16.40;1.00;;;;;;6186527;28;20240;-54
2022/07/07 00:35:16;;;;;;;1.93;1.83;;;16.40;1.00;;;;;;6210441;28;20243;-55
2022/07/07 00:38:18;;;;;;;1.90;1.80;;;16.40;1.00;;;;;;6206920;28;20543;-54
2022/07/07 00:41:21;;;;;;;2.37;2.13;;;16.50;1.00;;;;;;6210871;28;20457;-55
2022/07/07 00:44:26;;;;;;;2.00;1.93;;;16.50;1.00;;;;;;6197438;28;22236;-54
2022/07/07 00:47:30;;;;;;;1.90;1.80;;;16.50;1.00;;;;;;6184703;28;20314;-55
2022/07/07 00:50:33;;;;;;;1.93;1.77;;;16.50;1.00;;;;;;6207994;28;20243;-54
2022/07/07 00:53:36;;;;;;;1.80;1.70;;;16.50;1.00;;;;;;6192429;28;20232;-57
2022/07/07 00:56:40;;;;;;;2.47;1.93;;;16.40;1.00;;;;;;6185556;28;20232;-56
2022/07/07 00:59:44;;;;;;;4.47;2.03;;;16.50;1.00;;;;;;6185799;28;20434;-55
2022/07/07 01:02:47;;;;;;;1.80;1.80;;;16.50;1.00;;;;;;6189838;28;20386;-54
2022/07/07 01:05:51;;;;;;;1.60;1.60;;;16.50;1.00;;;;;;6209386;28;20231;-53
2022/07/07 01:08:55;;;;;;;2.97;2.17;;;16.60;1.00;;;;;;6192298;28;20239;-53
2022/07/07 01:11:59;;;;;;;1.97;1.70;;;16.60;1.00;;;;;;6191264;28;20294;-55
2022/07/07 01:15:03;;;;;;;2.27;1.97;;;16.60;1.00;;;;;;6184775;28;20252;-54
2022/07/07 01:18:07;;;;;;;4.80;2.07;;;16.60;1.00;;;;;;6193372;28;20235;-54
2022/07/07 01:21:12;;;;;;;2.87;1.63;;;16.70;1.00;;;;;;6202717;28;20584;-54
2022/07/07 01:24:16;;;;;;;3.87;1.70;;;16.60;1.00;;;;;;6206925;28;20285;-54
2022/07/07 01:27:21;;;;;;;2.33;1.70;;;16.50;1.00;;;;;;6208913;28;20774;-54
2022/07/07 01:30:25;;;;;;;1.90;1.80;;;16.40;1.00;;;;;;6201409;28;20714;-56
2022/07/07 01:33:27;;;;;;;4.00;1.80;;;16.30;1.00;;;;;;6195249;28;20231;-55
2022/07/07 01:36:31;;;;;;;1.97;1.87;;;16.20;1.00;;;;;;6208102;28;21703;-55
2022/07/07 01:39:38;;;;;;;2.40;1.80;;;16.00;1.00;;;;;;6201340;28;20341;-55
2022/07/07 01:42:42;;;;;;;2.40;1.90;;;16.00;1.00;;;;;;6209199;28;20297;-54
2022/07/07 01:45:45;;;;;;;1.87;1.77;;;15.80;1.00;;;;;;6204563;28;20242;-56
2022/07/07 01:48:48;;;;;;;1.73;1.63;;;15.80;1.00;;;;;;6183691;28;20728;-55
2022/07/07 01:51:52;;;;;;;2.00;1.90;;;15.70;1.00;;;;;;6182610;28;20301;-55
2022/07/07 01:54:56;;;;;;;2.00;1.90;;;15.60;1.00;;;;;;6182447;28;20698;-55
2022/07/07 01:57:59;;;;;;;3.17;2.10;;;15.50;1.00;;;;;;6183895;28;20753;-54
2022/07/07 02:01:12;;;;;;;1.97;1.87;;;15.40;1.00;;;;;;6184311;28;20255;-54
2022/07/07 02:04:28;;;;;;;2.20;2.00;;;15.30;1.00;;;;;;6196667;28;20327;-54
2022/07/07 02:07:31;;;;;;;3.40;2.00;;;15.30;1.00;;;;;;6194841;28;20240;-54
2022/07/07 02:13:58;;;;;;;2.20;2.10;;;15.20;1.00;;;;;;6208152;28;20339;-56
2022/07/07 02:17:01;;;;;;;3.37;2.00;;;15.10;1.00;;;;;;6189212;28;20326;-55
2022/07/07 02:20:05;;;;;;;2.17;2.07;;;15.00;1.00;;;;;;6183916;28;20322;-56
2022/07/07 02:23:08;;;;;;;2.47;2.27;;;14.90;1.00;;;;;;6180679;28;20266;-55
2022/07/07 02:26:12;;;;;;;2.70;2.30;;;14.80;1.00;;;;;;6184405;28;20410;-57
2022/07/07 02:29:15;;;;;;;2.07;1.97;;;14.70;1.00;;;;;;6183412;28;20726;-57
2022/07/07 02:32:18;;;;;;;2.60;2.37;;;14.60;1.00;;;;;;6184418;28;20709;-56
2022/07/07 02:35:22;;;;;;;3.23;2.50;;;14.50;1.00;;;;;;6207455;28;20239;-55
2022/07/07 02:38:25;;;;;;;2.90;2.70;;;14.40;1.00;;;;;;6188058;28;20448;-57
2022/07/07 02:41:29;;;;;;;2.73;2.53;;;14.40;1.00;;;;;;6207566;28;20764;-56
2022/07/07 02:44:32;;;;;;;2.70;2.50;;;14.30;1.00;;;;;;6208599;28;20235;-55
2022/07/07 02:47:38;;;;;;;2.93;2.70;;;14.30;1.00;;;;;;6187765;28;20326;-56
2022/07/07 02:50:42;;;;;;;2.83;2.63;;;14.30;1.00;;;;;;6207526;28;20317;-55
2022/07/07 02:53:44;;;;;;;9.27;2.70;;;14.30;1.00;;;;;;6204035;28;20243;-56
2022/07/07 02:56:53;;;;;;;3.03;2.67;;;14.30;1.00;;;;;;6188914;28;20772;-56
2022/07/07 02:59:56;;;;;;;3.07;2.87;;;14.30;1.00;;;;;;6183308;28;20254;-57
2022/07/07 03:02:59;;;;;;;2.80;2.60;;;14.30;1.00;;;;;;6189589;28;20615;-56
2022/07/07 03:06:03;;;;;;;3.70;2.77;;;14.30;1.00;;;;;;6205203;28;20348;-55
2022/07/07 03:09:06;;;;;;;4.70;2.67;;;14.30;1.00;;;;;;6203941;28;20580;-55
2022/07/07 03:12:11;;;;;;;2.80;2.70;;;14.30;1.00;;;;;;6207218;28;20277;-55
2022/07/07 03:15:14;;;;;;;3.30;3.07;;;14.20;1.00;;;;;;6183474;28;20240;-55
2022/07/07 03:18:17;;;;;;;4.50;2.80;;;14.20;1.00;;;;;;6182097;28;20635;-55
2022/07/07 03:21:20;;;;;;;3.10;2.90;;;14.20;1.00;;;;;;6181826;28;20323;-54
2022/07/07 03:24:23;;;;;;;3.57;3.13;;;14.20;1.00;;;;;;6181250;28;20251;-54
2022/07/07 03:27:29;;;;;;;3.47;3.07;;;14.20;1.00;;;;;;6182663;28;20244;-55
2022/07/07 03:30:32;;;;;;;5.57;3.40;;;14.20;1.00;;;;;;6199644;28;20267;-54
2022/07/07 03:33:35;;;;;;;3.83;3.50;;;14.00;1.00;;;;;;6189682;28;21049;-55
2022/07/07 03:36:39;;;;;;;3.60;3.30;;;14.00;1.00;;;;;;6196713;28;20334;-55
2022/07/07 03:39:42;;;;;;;3.60;3.30;;;14.00;1.00;;;;;;6200691;28;20760;-54
2022/07/07 03:42:46;;;;;;;3.90;3.63;;;14.00;1.00;;;;;;6209082;28;20259;-54
2022/07/07 03:45:50;;;;;;;5.30;3.53;;;14.00;1.00;;;;;;6209591;28;20228;-55
2022/07/07 03:48:53;;;;;;;4.17;3.63;;;13.90;1.00;;;;;;6206428;28;20246;-58
2022/07/07 03:51:57;;;;;;;4.63;3.37;;;13.80;1.00;;;;;;6209599;28;20242;-53
2022/07/07 03:55:00;;;;;;;4.03;3.77;;;13.80;1.00;;;;;;6208956;28;20242;-54
2022/07/07 03:58:04;;;;;;;5.07;3.53;;;13.70;1.00;;;;;;6209414;28;20474;-55
2022/07/07 04:01:08;;;;;;;3.83;3.60;;;13.80;1.00;;;;;;6211256;28;20393;-55
2022/07/07 04:04:11;;;;;;;3.60;3.40;;;13.80;1.00;;;;;;6204852;28;20235;-54
2022/07/07 04:07:14;;;;;;;3.83;3.20;;;13.80;1.00;;;;;;6197343;28;20720;-55
2022/07/07 04:10:16;;;;;;;5.23;3.43;;;13.90;1.00;;;;;;6207371;28;20784;-54
2022/07/07 04:13:21;;;;;;;3.33;3.23;;;13.90;1.00;;;;;;6206489;28;20247;-55
2022/07/07 04:16:24;;;;;;;6.33;3.43;;;13.80;1.00;;;;;;6203467;28;20709;-56
2022/07/07 04:19:27;;;;;;;4.10;3.70;;;13.90;1.00;;;;;;6207496;28;20235;-56
2022/07/07 04:22:30;;;;;;;4.23;3.30;;;13.90;1.00;;;;;;6202298;28;20239;-56
2022/07/07 04:25:33;;;;;;;4.17;3.87;;;13.80;1.00;;;;;;6203903;28;20235;-55
2022/07/07 04:28:37;;;;;;;3.67;3.30;;;13.80;1.00;;;;;;6205950;28;20781;-55
2022/07/07 04:31:44;;;;;;;4.13;3.87;;;13.80;1.00;;;;;;6213400;28;20261;-56
2022/07/07 04:34:47;;;;;;;4.20;3.90;;;13.80;1.00;;;;;;6219120;28;20235;-56
2022/07/07 04:37:50;;;;;;;5.70;4.07;;;13.70;1.00;;;;;;6232767;28;20378;-55
2022/07/07 04:40:53;;;;;;;3.73;3.63;;;13.80;1.00;;;;;;6234920;28;20644;-55
2022/07/07 04:44:00;;;;;;;4.33;4.13;;;13.60;1.00;;;;;;6232423;28;20231;-55
2022/07/07 04:47:04;;;;;;;4.07;3.83;;;13.70;1.00;;;;;;6233497;28;20242;-54
2022/07/07 04:50:15;;;;;;;4.60;4.30;;;13.70;1.00;;;;;;6237788;28;20239;-55
2022/07/07 04:53:19;;;;;;;4.40;4.20;;;13.70;1.00;;;;;;6228354;28;20242;-56
2022/07/07 04:56:22;;;;;;;4.53;4.33;;;13.70;1.00;;;;;;6231360;28;20261;-55
2022/07/07 04:59:26;;;;;;;6.90;4.70;;;13.70;1.00;;;;;;6230415;28;20325;-57
2022/07/07 05:02:29;;;;;;;4.70;4.50;;;13.70;1.00;;;;;;6228729;28;20290;-55
2022/07/07 05:05:32;;;;;;;5.37;4.57;;;13.70;1.00;;;;;;6228378;28;20561;-55
2022/07/07 05:08:35;;;;;;;4.70;4.60;;;13.60;1.00;;;;;;6224768;28;20251;-56
2022/07/07 05:11:38;;;;;;;4.83;4.53;;;13.60;1.00;;;;;;6231906;28;20357;-55
2022/07/07 05:14:43;;;;;;;4.90;4.57;;;13.70;1.00;;;;;;6227642;28;20329;-55
2022/07/07 05:17:46;;;;;;;4.87;4.53;;;13.70;1.00;;;;;;6226866;28;20226;-55
2022/07/07 05:20:49;;;;;;;4.60;4.40;;;13.80;1.00;;;;;;6233512;28;20326;-55
2022/07/07 05:23:52;;;;;;;4.73;4.27;;;13.90;1.00;;;;;;6225680;28;20316;-54
2022/07/07 05:26:55;;;;;;;4.57;4.33;;;13.90;1.00;;;;;;6232264;28;20611;-52
2022/07/07 05:29:59;;;;;;;4.80;4.40;;;13.90;1.00;;;;;;6232160;28;20317;-53
2022/07/07 05:33:03;;;;;;;4.70;4.33;;;13.90;1.00;;;;;;6230539;28;20611;-54
2022/07/07 05:36:06;;;;;;;4.63;4.27;;;13.90;1.00;;;;;;6232624;28;20408;-54
2022/07/07 05:39:15;;;;;;;4.90;4.53;;;14.00;1.00;;;;;;6227983;28;20594;-55
2022/07/07 05:42:18;;;;;;;4.77;4.20;;;14.00;1.00;;;;;;6236306;28;20288;-54
2022/07/07 05:45:23;;;;;;;4.33;4.13;;;14.10;1.00;;;;;;6232347;28;20388;-54
2022/07/07 05:48:28;;;;;;;5.20;4.70;;;14.00;1.00;;;;;;6232942;28;20238;-55
2022/07/07 05:51:31;;;;;;;4.30;4.20;;;14.00;1.00;;;;;;6233054;28;20237;-54
2022/07/07 05:54:34;;;;;;;4.63;4.03;;;14.00;1.00;;;;;;6228315;28;20714;-55
2022/07/07 05:57:38;;;;;;;4.63;3.93;;;14.00;1.00;;;;;;6232127;28;20247;-55
2022/07/07 06:00:43;;;;;;;4.57;4.30;;;14.00;1.00;;;;;;6231678;28;20658;-55
2022/07/07 06:03:46;;;;;;;4.70;4.40;;;14.00;1.00;;;;;;6233655;28;20320;-54
2022/07/07 06:06:50;;;;;;;4.50;4.20;;;14.00;1.00;;;;;;6227567;28;20662;-53
2022/07/07 06:09:53;;;;;;;4.43;4.23;;;14.00;1.00;;;;;;6237931;28;20249;-55
2022/07/07 06:12:56;;;;;;;7.47;4.50;;;14.00;1.00;;;;;;6232095;28;20303;-54
2022/07/07 06:16:00;;;;;;;5.30;5.00;;;14.00;1.00;;;;;;6220630;28;20229;-55
2022/07/07 06:19:03;;;;;;;5.30;4.90;;;14.00;1.00;;;;;;6213915;28;20239;-55
2022/07/07 06:22:06;;;;;;;5.17;4.97;;;14.00;1.00;;;;;;6229878;28;20235;-56
2022/07/07 06:25:10;;;;;;;6.10;5.50;;;14.00;1.00;;;;;;6227648;28;20283;-53
2022/07/07 06:28:13;;;;;;;5.97;5.57;;;14.00;1.00;;;;;;6234770;28;20329;-56
2022/07/07 06:31:17;;;;;;;5.67;5.37;;;14.10;1.00;;;;;;6232462;28;20241;-53
2022/07/07 06:34:20;;;;;;;5.33;5.10;;;14.10;1.00;;;;;;6229638;28;20245;-55
2022/07/07 06:37:31;;;;;;;5.43;5.00;;;14.10;1.00;;;;;;6230017;28;20235;-54
2022/07/07 06:40:34;;;;;;;5.50;5.30;;;14.10;1.00;;;;;;6224261;28;20676;-55
2022/07/07 06:43:36;;;;;;;5.33;5.03;;;14.20;1.00;;;;;;6230749;28;20337;-53
2022/07/07 06:46:41;;;;;;;6.03;5.80;;;14.10;1.00;;;;;;6224749;28;20238;-54
2022/07/07 06:49:44;;;;;;;5.53;5.33;;;14.10;1.00;;;;;;6231872;28;20615;-54
2022/07/07 06:52:47;;;;;;;5.87;5.57;;;14.10;1.00;;;;;;6227222;28;20368;-55
2022/07/07 06:55:50;;;;;;;6.27;5.90;;;14.10;1.00;;;;;;6226227;28;20313;-54
2022/07/07 06:58:53;;;;;;;6.80;6.23;;;14.10;1.00;;;;;;6231032;28;20771;-57
2022/07/07 07:01:57;;;;;;;5.87;5.60;;;14.20;1.00;;;;;;6237016;28;20237;-54
2022/07/07 07:05:00;;;;;;;5.60;5.30;;;14.20;1.00;;;;;;6229294;28;20418;-55
2022/07/07 07:08:03;;;;;;;6.00;5.60;;;14.30;1.00;;;;;;6229379;28;20247;-54
2022/07/07 07:11:06;;;;;;;5.07;4.77;;;14.30;1.00;;;;;;6226025;28;20379;-54
2022/07/07 07:14:09;;;;;;;5.37;5.23;;;14.30;1.00;;;;;;6232249;28;20276;-54
2022/07/07 07:17:15;;;;;;;5.23;5.03;;;14.40;1.00;;;;;;6238046;28;20223;-54
2022/07/07 07:20:18;;;;;;;5.13;4.77;;;14.40;1.00;;;;;;6227067;28;20715;-53
2022/07/07 07:23:21;;;;;;;4.60;4.50;;;14.50;1.00;;;;;;6228490;28;20283;-53
2022/07/07 07:26:24;;;;;;;5.00;4.80;;;14.50;1.00;;;;;;6234592;28;20291;-53
2022/07/07 07:29:27;;;;;;;4.80;4.60;;;14.50;1.00;;;;;;6234357;28;20676;-54
2022/07/07 07:32:31;;;;;;;4.80;4.40;;;14.60;1.00;;;;;;6232637;28;20835;-53
2022/07/07 07:35:35;;;;;;;4.63;4.23;;;14.60;1.00;;;;;;6241502;28;20682;-54
2022/07/07 07:38:39;;;;;;;4.50;4.30;;;14.60;1.00;;;;;;6231569;28;20333;-54
2022/07/07 07:41:43;;;;;;;4.27;4.17;;;14.60;1.00;;;;;;6228679;28;20293;-54
2022/07/07 07:48:08;;;;;;;4.67;4.47;;;14.50;1.00;;;;;;6228188;28;20732;-54
2022/07/07 07:51:11;;;;;;;4.60;4.50;;;14.60;1.00;;;;;;6232728;28;20692;-53
2022/07/07 07:54:14;;;;;;;4.90;4.80;;;14.60;1.00;;;;;;6228280;28;20238;-54
2022/07/07 07:57:17;;;;;;;5.20;5.10;;;14.60;1.00;;;;;;6232314;28;20235;-55
2022/07/07 08:00:22;;;;;;;4.80;4.60;;;14.60;1.00;;;;;;6228937;28;20242;-54
2022/07/07 08:03:26;;;;;;;4.73;4.63;;;14.80;1.00;;;;;;6234267;28;20554;-54
2022/07/07 08:06:30;;;;;;;5.10;5.00;;;14.90;1.00;;;;;;6235827;28;20415;-54
2022/07/07 08:09:33;;;;;;;5.30;5.10;;;14.90;1.00;;;;;;6232442;28;20253;-55
2022/07/07 08:12:36;;;;;;;4.83;4.73;;;15.00;1.00;;;;;;6231010;28;20313;-54
2022/07/07 08:15:38;;;;;;;4.97;4.57;;;15.10;1.00;;;;;;6236765;28;20218;-55
2022/07/07 08:18:43;;;;;;;4.83;4.73;;;15.20;1.00;;;;;;6230934;28;20661;-55
2022/07/07 08:21:47;;;;;;;4.37;4.20;;;15.20;1.00;;;;;;6232660;28;20223;-54
2022/07/07 08:24:50;;;;;;;4.90;4.60;;;15.40;1.00;;;;;;6231385;28;20789;-54
2022/07/07 08:27:53;;;;;;;4.80;4.70;;;15.40;1.00;;;;;;6231973;28;20747;-53
2022/07/07 08:30:56;;;;;;;4.10;4.00;;;15.40;1.00;;;;;;6231071;28;20696;-54
2022/07/07 08:34:00;;;;;;;4.40;4.30;;;15.40;1.00;;;;;;6234606;28;20324;-54
2022/07/07 08:37:03;;;;;;;4.50;4.40;;;15.60;1.00;;;;;;6234108;28;20848;-54
2022/07/07 08:40:07;;;;;;;4.23;4.00;;;15.60;1.00;;;;;;6230870;28;20238;-55
2022/07/07 08:43:15;;;;;;;4.20;4.10;;;15.60;1.00;;;;;;6221586;28;20234;-54
2022/07/07 08:46:18;;;;;;;4.30;4.00;;;15.60;1.00;;;;;;6235747;28;20248;-54
2022/07/07 08:49:37;;;;;;;4.00;3.90;;;15.60;1.00;;;;;;6230637;28;20258;-54
2022/07/07 08:52:40;;;;;;;3.90;3.77;;;15.50;1.00;;;;;;6233652;28;20326;-56
2022/07/07 08:55:46;;;;;;;3.90;3.80;;;15.60;1.00;;;;;;6233465;28;20246;-54
2022/07/07 08:58:50;;;;;;;4.17;4.07;;;15.60;1.00;;;;;;6236826;28;20558;-54
2022/07/07 09:02:09;;;;;;;4.00;3.90;;;15.60;1.00;;;;;;6233661;28;20239;-55
2022/07/07 09:05:14;;;;;;;6.10;4.13;;;15.60;1.00;;;;;;6233739;28;20785;-55
2022/07/07 09:08:18;;;;;;;4.33;4.23;;;15.70;1.00;;;;;;6229696;28;20361;-58
2022/07/07 09:11:25;;;;;;;4.40;4.33;;;15.60;1.00;;;;;;6232673;28;20238;-55
2022/07/07 09:14:35;;;;;;;5.00;4.70;;;15.60;1.00;;;;;;6227691;28;20245;-55
2022/07/07 09:17:38;;;;;;;3.77;3.77;;;15.70;1.00;;;;;;6238804;28;20318;-53
2022/07/07 09:20:49;;;;;;;4.23;4.23;;;15.80;1.00;;;;;;6233099;28;20239;-54
2022/07/07 09:23:53;;;;;;;4.33;4.13;;;15.80;1.00;;;;;;6231520;28;20268;-54
2022/07/07 09:26:56;;;;;;;6.33;4.37;;;15.80;1.00;;;;;;6232854;28;20241;-55
2022/07/07 09:29:59;;;;;;;4.67;4.47;;;15.90;1.00;;;;;;6232202;28;20242;-55
2022/07/07 09:33:04;;;;;;;3.53;3.43;;;16.00;1.00;;;;;;6226723;28;20534;-55
2022/07/07 09:39:50;;;;;;;4.30;4.10;;;16.10;1.00;;;;;;6224401;28;20353;-57
2022/07/07 09:43:13;;;;;;;4.60;4.33;;;16.00;1.00;;;;;;6228762;28;20687;-56
2022/07/07 09:46:18;;;;;;;4.63;4.43;;;15.90;1.00;;;;;;6232226;28;20730;-54
2022/07/07 09:49:21;;;;;;;4.30;4.30;;;15.80;1.00;;;;;;6227733;28;20754;-55
2022/07/07 09:52:26;;;;;;;4.27;4.17;;;15.80;1.00;;;;;;6227255;28;20234;-54
2022/07/07 09:55:29;;;;;;;4.10;4.00;;;15.90;1.00;;;;;;6231476;28;21039;-53
2022/07/07 09:58:32;;;;;;;4.67;4.57;;;16.00;1.00;;;;;;6229720;28;20241;-54
2022/07/07 10:01:38;;;;;;;4.67;4.50;;;16.00;1.00;;;;;;6237774;28;20257;-55
2022/07/07 10:04:44;;;;;;;4.17;4.10;;;16.20;1.00;;;;;;6231624;28;20250;-53
2022/07/07 10:07:48;;;;;;;3.93;3.83;;;16.30;1.00;;;;;;6235385;28;20329;-54
2022/07/07 10:10:53;;;;;;;4.27;4.17;;;16.40;1.00;;;;;;6239434;28;20254;-54
2022/07/07 10:14:18;;;;;;;4.00;3.90;;;16.40;1.00;;;;;;6241235;28;20237;-54
2022/07/07 10:17:22;;;;;;;4.67;4.40;;;16.50;1.00;;;;;;6232547;28;20461;-55
2022/07/07 10:20:25;;;;;;;4.73;4.63;;;16.50;1.00;;;;;;6237533;28;20296;-54
2022/07/07 10:23:36;;;;;;;4.83;4.73;;;16.50;1.00;;;;;;6230222;28;20591;-54
2022/07/07 10:26:41;;;;;;;4.53;4.43;;;16.50;1.00;;;;;;6233437;28;20455;-55
2022/07/07 10:29:46;;;;;;;4.83;4.43;;;16.60;1.00;;;;;;6225574;28;20324;-58
2022/07/07 10:32:52;;;;;;;5.00;4.80;;;16.60;1.00;;;;;;6238222;28;20242;-54
2022/07/07 10:35:55;;;;;;;4.60;4.50;;;16.70;1.00;;;;;;6234729;28;20766;-65
2022/07/07 10:39:00;;;;;;;4.47;4.37;;;16.70;1.00;;;;;;6237768;28;20329;-54
2022/07/07 10:42:30;;;;;;;4.90;4.70;;;16.70;1.00;;;;;;6230872;28;20559;-56
2022/07/07 10:45:33;;;;;;;5.07;4.97;;;16.80;1.00;;;;;;6232440;28;20610;-56
2022/07/07 10:48:49;;;;;;;5.23;5.03;;;16.90;1.00;;;;;;6228589;28;20483;-55
2022/07/07 10:51:54;;;;;;;5.13;5.03;;;16.90;1.00;;;;;;6233940;28;20230;-57
2022/07/07 10:55:02;;;;;;;5.67;5.47;;;16.90;1.00;;;;;;6228722;28;20246;-55
2022/07/07 10:58:05;;;;;;;5.37;5.27;;;16.90;1.00;;;;;;6245196;28;20246;-55
2022/07/07 11:01:08;;;;;;;5.10;5.00;;;16.90;1.00;;;;;;6239773;28;20738;-54
2022/07/07 11:04:12;;;;;;;5.90;5.60;;;16.90;1.00;;;;;;6235638;28;20612;-56
2022/07/07 11:07:16;;;;;;;5.53;5.43;;;17.00;1.00;;;;;;6238295;28;20265;-55
2022/07/07 11:10:20;;;;;;;6.63;6.33;;;16.90;1.00;;;;;;6234113;28;20258;-57
2022/07/07 11:13:34;;;;;;;6.40;6.23;;;16.90;1.00;;;;;;6232306;28;20239;-55
2022/07/07 11:16:39;;;;;;;6.50;6.30;;;16.90;1.00;;;;;;6240874;28;20333;-57
2022/07/07 11:19:43;;;;;;;7.20;6.73;;;16.80;1.00;;;;;;6229678;28;20242;-55
2022/07/07 11:22:47;;;;;;;6.90;6.60;;;16.90;1.00;;;;;;6236538;28;20718;-55
2022/07/07 11:25:56;;;;;;;7.00;6.70;;;16.80;1.00;;;;;;6235538;28;20691;-54
2022/07/07 11:28:59;;;;;;;7.30;7.00;;;16.90;1.00;;;;;;6234245;28;20239;-54
2022/07/07 11:32:04;;;;;;;8.10;7.60;;;16.90;1.00;;;;;;6234327;28;20242;-55
2022/07/07 11:35:11;;;;;;;8.20;7.80;;;16.80;1.00;;;;;;6241232;28;20926;-56
2022/07/07 11:38:14;;;;;;;9.07;8.50;;;16.90;1.00;;;;;;6237605;28;20333;-55
2022/07/07 11:41:19;;;;;;;8.90;8.40;;;16.90;1.00;;;;;;6233178;28;20327;-55
2022/07/07 11:44:22;;;;;;;10.63;9.33;;;16.80;1.00;;;;;;6240259;28;20835;-56
2022/07/07 11:47:26;;;;;;;8.43;8.13;;;16.90;1.00;;;;;;6236971;28;20483;-59
2022/07/07 11:50:31;;;;;;;9.17;8.77;;;16.90;1.00;;;;;;6243541;28;20792;-55
2022/07/07 11:53:36;;;;;;;8.87;8.33;;;17.00;1.00;;;;;;6233884;28;20277;-56
2022/07/07 11:56:42;;;;;;;9.90;9.40;;;17.00;1.00;;;;;;6234915;28;20246;-55
2022/07/07 11:59:45;;;;;;;9.40;8.90;;;17.20;1.00;;;;;;6237570;28;20338;-55
2022/07/07 12:02:51;;;;;;;9.27;8.77;;;17.10;1.00;;;;;;6232436;28;20770;-54
2022/07/07 12:05:54;;;;;;;9.90;9.20;;;17.10;1.00;;;;;;6234720;28;20241;-55
2022/07/07 12:09:02;;;;;;;10.90;10.00;;;17.10;1.00;;;;;;6231358;28;20784;-55
2022/07/07 12:12:16;;;;;;;10.03;8.93;;;17.10;1.00;;;;;;6235355;28;20748;-55
2022/07/07 12:15:19;;;;;;;9.07;8.57;;;17.20;1.00;;;;;;6230707;28;20304;-55
2022/07/07 12:18:32;;;;;;;9.80;9.30;;;17.30;1.00;;;;;;6234616;28;20269;-55
2022/07/07 12:21:43;;;;;;;9.17;8.77;;;17.40;1.00;;;;;;6225733;28;20243;-56
2022/07/07 12:25:00;;;;;;;8.67;8.17;;;17.60;1.00;;;;;;6231564;28;20234;-55
2022/07/07 12:28:34;;;;;;;7.97;7.57;;;17.90;1.00;;;;;;6233793;28;20258;-55
2022/07/07 12:31:37;;;;;;;6.43;6.23;;;18.20;1.00;;;;;;6234870;28;20497;-56
2022/07/07 12:34:45;;;;;;;6.97;6.47;;;18.50;1.00;;;;;;6233619;28;20333;-56
2022/07/07 12:37:48;;;;;;;5.97;5.70;;;19.00;1.00;;;;;;6233775;28;20486;-57
2022/07/07 12:40:58;;;;;;;5.87;5.60;;;19.30;1.00;;;;;;6238548;28;20238;-57
2022/07/07 12:44:14;;;;;;;6.57;6.33;;;19.40;1.00;;;;;;6228435;28;20294;-56
2022/07/07 12:47:45;;;;;;;6.00;5.80;;;19.50;1.00;;;;;;6237234;28;20245;-59
2022/07/07 12:50:50;;;;;;;6.63;6.33;;;19.40;1.00;;;;;;6230751;28;20379;-58
2022/07/07 12:53:53;;;;;;;5.07;4.97;;;19.30;1.00;;;;;;6215771;28;20321;-57
2022/07/07 12:57:01;;;;;;;5.57;5.27;;;19.30;1.00;;;;;;6233662;28;20243;-58
2022/07/07 13:00:08;;;;;;;5.60;5.40;;;19.30;1.00;;;;;;6229862;28;20926;-56
2022/07/07 13:03:12;;;;;;;5.67;5.47;;;19.20;1.00;;;;;;6243385;28;20757;-57
2022/07/07 13:06:17;;;;;;;6.30;6.00;;;19.10;1.00;;;;;;6237787;28;20266;-58
2022/07/07 13:09:20;;;;;;;6.03;5.83;;;19.10;1.00;;;;;;6232433;28;20238;-56
2022/07/07 13:12:39;;;;;;;5.70;5.33;;;19.00;1.00;;;;;;6239644;28;20271;-58
2022/07/07 13:15:44;;;;;;;4.70;4.60;;;19.00;1.00;;;;;;6239782;28;20355;-57
2022/07/07 13:18:47;;;;;;;4.70;4.60;;;19.00;1.00;;;;;;6233815;28;20614;-56
2022/07/07 13:21:50;;;;;;;5.63;5.33;;;19.10;1.00;;;;;;6232678;28;20721;-57
2022/07/07 13:24:53;;;;;;;5.53;5.33;;;19.20;1.00;;;;;;6235915;28;20231;-57
2022/07/07 13:27:55;;;;;;;5.30;5.20;;;19.10;1.00;;;;;;6232423;28;20773;-57
2022/07/07 13:31:01;;;;;;;5.70;5.33;;;19.00;1.00;;;;;;6231496;28;20245;-57
2022/07/07 13:34:05;;;;;;;4.93;4.80;;;18.70;1.00;;;;;;6234772;28;20230;-57
2022/07/07 13:37:08;;;;;;;5.13;4.93;;;18.70;1.00;;;;;;6232648;28;21134;-56
2022/07/07 13:40:11;;;;;;;4.97;4.87;;;18.60;1.00;;;;;;6233546;28;20235;-55
2022/07/07 13:43:14;;;;;;;4.80;4.40;;;18.70;1.00;;;;;;6228103;28;20234;-56
2022/07/07 13:46:19;;;;;;;5.10;4.90;;;18.70;1.00;;;;;;6234961;28;20231;-57
2022/07/07 13:49:22;;;;;;;5.27;5.10;;;18.90;1.00;;;;;;6230299;28;20266;-57
2022/07/07 13:52:24;;;;;;;5.07;4.97;;;19.20;1.00;;;;;;6242247;28;20230;-56
2022/07/07 13:55:27;;;;;;;5.10;4.90;;;19.60;1.00;;;;;;6233761;28;20322;-58
2022/07/07 13:58:36;;;;;;;4.77;4.67;;;19.80;1.00;;;;;;6228749;28;20892;-56
2022/07/07 14:01:41;;;;;;;4.70;4.60;;;19.90;1.00;;;;;;6235325;28;20289;-56
2022/07/07 14:04:44;;;;;;;5.13;5.00;;;20.10;1.00;;;;;;6227129;28;20895;-57
2022/07/07 14:07:51;;;;;;;4.93;4.63;;;20.30;1.00;;;;;;6232343;28;20806;-57
2022/07/07 14:10:54;;;;;;;3.53;3.40;;;20.50;1.00;;;;;;6233244;28;20285;-57
2022/07/07 14:13:57;;;;;;;4.20;4.10;;;20.70;1.00;;;;;;6226105;28;20242;-57
2022/07/07 14:17:05;;;;;;;3.80;3.70;;;20.70;1.00;;;;;;6228075;28;20234;-57
2022/07/07 14:20:09;;;;;;;3.70;3.70;;;20.70;1.00;;;;;;6221057;28;20241;-56
2022/07/07 14:23:12;;;;;;;2.77;2.77;;;20.90;1.00;;;;;;6227516;28;20318;-57
2022/07/07 14:26:15;;;;;;;2.67;2.67;;;21.10;1.00;;;;;;6235259;28;20331;-57
2022/07/07 14:29:19;;;;;;;2.40;2.40;;;21.20;1.00;;;;;;6230649;28;20684;-56
2022/07/07 14:32:23;;;;;;;2.53;2.53;;;21.40;1.00;;;;;;6225425;28;20266;-56
2022/07/07 14:35:26;;;;;;;2.67;2.67;;;21.50;1.00;;;;;;6234408;28;20672;-57
2022/07/07 14:38:29;;;;;;;2.50;2.50;;;21.50;1.00;;;;;;6223844;28;20249;-57
2022/07/07 14:41:36;;;;;;;2.40;2.40;;;21.60;1.00;;;;;;6230763;28;20706;-57
2022/07/07 14:44:39;;;;;;;2.57;2.57;;;21.70;1.00;;;;;;6231683;28;20288;-59
2022/07/07 14:47:43;;;;;;;2.50;2.47;;;21.60;1.00;;;;;;6233344;28;20234;-57
2022/07/07 14:50:46;;;;;;;2.50;2.50;;;21.40;1.00;;;;;;6235103;28;20337;-59
2022/07/07 14:53:49;;;;;;;2.70;2.70;;;21.30;1.00;;;;;;6235787;28;20729;-58
2022/07/07 14:56:52;;;;;;;2.80;2.70;;;21.10;1.00;;;;;;6222487;28;20329;-57
2022/07/07 14:59:55;;;;;;;2.80;2.80;;;20.90;1.00;;;;;;6231671;28;20364;-56
2022/07/07 15:03:00;;;;;;;2.80;2.63;;;20.50;1.00;;;;;;6229499;28;20230;-58
2022/07/07 15:06:03;;;;;;;4.30;2.53;;;20.40;1.00;;;;;;6234861;28;20253;-57
2022/07/07 15:09:06;;;;;;;3.20;3.10;;;20.20;1.00;;;;;;6226407;28;20268;-57
2022/07/07 15:12:10;;;;;;;3.27;3.17;;;20.20;1.00;;;;;;6230609;28;20254;-56
2022/07/07 15:15:13;;;;;;;3.67;3.47;;;20.20;1.00;;;;;;6227061;28;20242;-56
2022/07/07 15:18:18;;;;;;;3.60;3.60;;;20.00;1.00;;;;;;6237526;28;20269;-58
2022/07/07 15:21:21;;;;;;;3.70;3.60;;;19.90;1.00;;;;;;6233849;28;20226;-56
2022/07/07 15:24:24;;;;;;;4.10;4.00;;;19.80;1.00;;;;;;6235361;28;20239;-54
2022/07/07 15:27:27;;;;;;;6.70;5.37;;;19.70;1.00;;;;;;6236160;28;20308;-56
2022/07/07 15:30:32;;;;;;;5.90;5.30;;;19.60;1.00;;;;;;6229937;28;20239;-54
2022/07/07 15:33:37;;;;;;;5.23;5.03;;;19.40;1.00;;;;;;6229221;28;20286;-55
2022/07/07 15:36:40;;;;;;;5.10;4.90;;;19.50;1.00;;;;;;6239770;28;20269;-55
2022/07/07 15:39:43;;;;;;;4.03;3.93;;;19.60;1.00;;;;;;6230671;28;20743;-56
2022/07/07 15:42:53;;;;;;;3.50;3.30;;;19.80;1.00;;;;;;6236144;28;20729;-56
2022/07/07 15:45:56;;;;;;;3.40;3.20;;;19.90;1.00;;;;;;6228031;28;20308;-56
2022/07/07 15:49:01;;;;;;;3.33;3.23;;;20.10;1.00;;;;;;6234245;28;20755;-56
2022/07/07 15:52:04;;;;;;;2.57;2.50;;;20.20;1.00;;;;;;6233937;28;20341;-56
2022/07/07 15:55:07;;;;;;;2.33;2.30;;;20.50;1.00;;;;;;6235120;28;20249;-56
2022/07/07 15:58:10;;;;;;;2.30;2.20;;;20.60;1.00;;;;;;6241349;28;20320;-57
2022/07/07 16:01:14;;;;;;;1.80;1.80;;;20.70;1.00;;;;;;6235213;28;20242;-57
2022/07/07 16:04:36;;;;;;;1.60;1.60;;;20.70;1.00;;;;;;6226812;28;20264;-57
2022/07/07 16:07:39;;;;;;;1.80;1.70;;;20.80;1.00;;;;;;6231997;28;20281;-56
2022/07/07 16:10:43;;;;;;;3.03;1.70;;;20.80;1.00;;;;;;6238105;28;20262;-57
2022/07/07 16:13:46;;;;;;;1.67;1.57;;;20.90;1.00;;;;;;6233576;28;20657;-57
2022/07/07 16:16:49;;;;;;;1.57;1.57;;;20.90;1.00;;;;;;6238227;28;20848;-57
2022/07/07 16:19:53;;;;;;;2.00;1.90;;;20.90;1.00;;;;;;6236477;28;20254;-57
2022/07/07 16:22:57;;;;;;;1.80;1.80;;;20.90;1.00;;;;;;6234508;28;20309;-57
2022/07/07 16:26:01;;;;;;;1.53;1.53;;;20.70;1.00;;;;;;6233421;28;20300;-57